sensor_id;sensor_type;location;lat;lon;timestamp;P1;durP1;ratioP1;P2;durP2;ratioP2
30337;SDS011;17143;51.888;5.408;2023-02-28T00:05:50;6.73;;;2.67;;
30337;SDS011;17143;51.888;5.408;2023-02-28T00:20:52;5.83;;;3.27;;
30337;SDS011;17143;51.888;5.408;2023-02-28T00:36:01;4.97;;;2.77;;
30337;SDS011;17143;51.888;5.408;2023-02-28T00:51:05;4.17;;;2.43;;
30337;SDS011;17143;51.888;5.408;2023-02-28T01:06:07;5.10;;;2.60;;
30337;SDS011;17143;51.888;5.408;2023-02-28T01:21:10;6.53;;;2.73;;
30337;SDS011;17143;51.888;5.408;2023-02-28T01:36:15;5.33;;;2.87;;
30337;SDS011;17143;51.888;5.408;2023-02-28T01:51:19;3.90;;;2.60;;
30337;SDS011;17143;51.888;5.408;2023-02-28T02:06:24;4.70;;;2.90;;
30337;SDS011;17143;51.888;5.408;2023-02-28T02:37:13;8.20;;;2.87;;
30337;SDS011;17143;51.888;5.408;2023-02-28T02:52:24;7.27;;;2.87;;
30337;SDS011;17143;51.888;5.408;2023-02-28T03:07:32;4.13;;;2.90;;
30337;SDS011;17143;51.888;5.408;2023-02-28T03:22:38;4.77;;;2.77;;
30337;SDS011;17143;51.888;5.408;2023-02-28T03:37:55;4.00;;;2.53;;
30337;SDS011;17143;51.888;5.408;2023-02-28T03:53:02;5.13;;;3.00;;
30337;SDS011;17143;51.888;5.408;2023-02-28T04:08:09;4.30;;;2.47;;
30337;SDS011;17143;51.888;5.408;2023-02-28T04:23:11;6.10;;;2.80;;
30337;SDS011;17143;51.888;5.408;2023-02-28T04:38:13;3.90;;;2.27;;
30337;SDS011;17143;51.888;5.408;2023-02-28T04:53:15;3.50;;;1.90;;
30337;SDS011;17143;51.888;5.408;2023-02-28T05:08:17;2.33;;;1.37;;
30337;SDS011;17143;51.888;5.408;2023-02-28T05:23:19;3.90;;;1.73;;
30337;SDS011;17143;51.888;5.408;2023-02-28T05:38:22;3.80;;;1.57;;
30337;SDS011;17143;51.888;5.408;2023-02-28T05:53:24;2.67;;;1.87;;
30337;SDS011;17143;51.888;5.408;2023-02-28T06:08:26;4.00;;;2.10;;
30337;SDS011;17143;51.888;5.408;2023-02-28T06:23:29;6.07;;;2.60;;
30337;SDS011;17143;51.888;5.408;2023-02-28T06:38:31;3.60;;;2.67;;
30337;SDS011;17143;51.888;5.408;2023-02-28T06:53:33;2.97;;;2.40;;
30337;SDS011;17143;51.888;5.408;2023-02-28T07:08:35;3.23;;;2.40;;
30337;SDS011;17143;51.888;5.408;2023-02-28T07:23:37;3.60;;;2.23;;
30337;SDS011;17143;51.888;5.408;2023-02-28T07:38:40;2.57;;;2.00;;
30337;SDS011;17143;51.888;5.408;2023-02-28T07:53:43;3.80;;;2.00;;
30337;SDS011;17143;51.888;5.408;2023-02-28T08:08:45;3.07;;;2.00;;
30337;SDS011;17143;51.888;5.408;2023-02-28T08:23:47;3.80;;;2.03;;
30337;SDS011;17143;51.888;5.408;2023-02-28T08:38:50;3.80;;;1.70;;
30337;SDS011;17143;51.888;5.408;2023-02-28T08:53:52;2.07;;;1.60;;
30337;SDS011;17143;51.888;5.408;2023-02-28T09:08:55;2.57;;;1.60;;
30337;SDS011;17143;51.888;5.408;2023-02-28T09:23:58;1.47;;;1.20;;
30337;SDS011;17143;51.888;5.408;2023-02-28T09:39:00;3.53;;;1.60;;
30337;SDS011;17143;51.888;5.408;2023-02-28T09:54:02;1.90;;;1.60;;
30337;SDS011;17143;51.888;5.408;2023-02-28T10:09:06;1.80;;;1.57;;
30337;SDS011;17143;51.888;5.408;2023-02-28T10:24:16;2.03;;;1.40;;
30337;SDS011;17143;51.888;5.408;2023-02-28T10:39:38;2.33;;;1.50;;
30337;SDS011;17143;51.888;5.408;2023-02-28T10:54:42;3.57;;;1.50;;
30337;SDS011;17143;51.888;5.408;2023-02-28T11:09:44;1.73;;;1.47;;
30337;SDS011;17143;51.888;5.408;2023-02-28T11:24:50;2.13;;;1.50;;
30337;SDS011;17143;51.888;5.408;2023-02-28T11:39:55;2.50;;;1.60;;
30337;SDS011;17143;51.888;5.408;2023-02-28T11:55:01;1.80;;;1.40;;
30337;SDS011;17143;51.888;5.408;2023-02-28T12:10:18;2.50;;;1.40;;
30337;SDS011;17143;51.888;5.408;2023-02-28T12:41:02;1.90;;;1.70;;
30337;SDS011;17143;51.888;5.408;2023-02-28T12:56:09;3.80;;;2.07;;
30337;SDS011;17143;51.888;5.408;2023-02-28T13:11:25;1.93;;;1.50;;
30337;SDS011;17143;51.888;5.408;2023-02-28T13:42:23;4.37;;;2.23;;
30337;SDS011;17143;51.888;5.408;2023-02-28T13:57:40;2.30;;;1.80;;
30337;SDS011;17143;51.888;5.408;2023-02-28T14:12:53;1.80;;;1.70;;
30337;SDS011;17143;51.888;5.408;2023-02-28T14:28:04;2.70;;;2.00;;
30337;SDS011;17143;51.888;5.408;2023-02-28T14:43:20;2.67;;;1.83;;
30337;SDS011;17143;51.888;5.408;2023-02-28T14:58:24;2.33;;;1.50;;
30337;SDS011;17143;51.888;5.408;2023-02-28T15:13:30;2.20;;;1.87;;
30337;SDS011;17143;51.888;5.408;2023-02-28T15:28:37;2.13;;;1.83;;
30337;SDS011;17143;51.888;5.408;2023-02-28T15:43:40;3.00;;;1.93;;
30337;SDS011;17143;51.888;5.408;2023-02-28T15:58:42;2.17;;;1.90;;
30337;SDS011;17143;51.888;5.408;2023-02-28T16:13:44;2.77;;;1.70;;
30337;SDS011;17143;51.888;5.408;2023-02-28T16:28:46;2.73;;;2.20;;
30337;SDS011;17143;51.888;5.408;2023-02-28T16:43:48;4.23;;;2.10;;
30337;SDS011;17143;51.888;5.408;2023-02-28T16:58:52;4.80;;;2.17;;
30337;SDS011;17143;51.888;5.408;2023-02-28T17:14:00;5.50;;;2.40;;
30337;SDS011;17143;51.888;5.408;2023-02-28T17:29:02;3.57;;;2.57;;
30337;SDS011;17143;51.888;5.408;2023-02-28T17:44:04;6.10;;;2.87;;
30337;SDS011;17143;51.888;5.408;2023-02-28T17:59:08;5.40;;;3.13;;
30337;SDS011;17143;51.888;5.408;2023-02-28T18:14:11;4.23;;;2.63;;
30337;SDS011;17143;51.888;5.408;2023-02-28T18:29:15;6.00;;;2.73;;
30337;SDS011;17143;51.888;5.408;2023-02-28T18:44:19;11.50;;;4.50;;
30337;SDS011;17143;51.888;5.408;2023-02-28T18:59:21;6.57;;;3.77;;
30337;SDS011;17143;51.888;5.408;2023-02-28T19:14:23;7.37;;;4.80;;
30337;SDS011;17143;51.888;5.408;2023-02-28T19:29:25;6.77;;;4.03;;
30337;SDS011;17143;51.888;5.408;2023-02-28T19:44:27;5.53;;;3.57;;
30337;SDS011;17143;51.888;5.408;2023-02-28T19:59:29;5.83;;;3.83;;
30337;SDS011;17143;51.888;5.408;2023-02-28T20:14:31;7.23;;;3.80;;
30337;SDS011;17143;51.888;5.408;2023-02-28T20:29:33;10.77;;;5.90;;
30337;SDS011;17143;51.888;5.408;2023-02-28T20:44:35;14.40;;;6.00;;
30337;SDS011;17143;51.888;5.408;2023-02-28T20:59:37;7.37;;;5.27;;
30337;SDS011;17143;51.888;5.408;2023-02-28T21:14:39;7.47;;;4.97;;
30337;SDS011;17143;51.888;5.408;2023-02-28T21:29:41;8.33;;;5.00;;
30337;SDS011;17143;51.888;5.408;2023-02-28T21:44:43;14.30;;;7.37;;
30337;SDS011;17143;51.888;5.408;2023-02-28T21:59:46;12.00;;;6.30;;
30337;SDS011;17143;51.888;5.408;2023-02-28T22:14:48;7.60;;;5.33;;
30337;SDS011;17143;51.888;5.408;2023-02-28T22:29:50;9.40;;;5.30;;
30337;SDS011;17143;51.888;5.408;2023-02-28T22:44:52;12.63;;;5.97;;
30337;SDS011;17143;51.888;5.408;2023-02-28T22:59:54;15.13;;;6.57;;
30337;SDS011;17143;51.888;5.408;2023-02-28T23:14:56;12.77;;;6.30;;
30337;SDS011;17143;51.888;5.408;2023-02-28T23:29:58;10.10;;;5.77;;
30337;SDS011;17143;51.888;5.408;2023-02-28T23:45:00;9.43;;;5.60;;
